Time,TemperatureF,DewpointF,PressureIn,WindDirection,WindDirectionDegrees,WindSpeedMPH,WindSpeedGustMPH,Humidity,HourlyPrecipIn,Conditions,Clouds,dailyrainin,SoftwareType,DateUTC
2013-01-18 00:00:00,23.6,18.6,30.47,SSW,205,0.0,3.0,81,0.00,,---,0.00,VWS V14.01,2013-01-18 06:00:00,
2013-01-18 00:04:00,23.4,18.4,30.47,SW,234,1.0,2.0,81,0.00,,---,0.00,VWS V14.01,2013-01-18 06:04:00,
2013-01-18 00:09:00,23.4,18.7,30.47,SW,234,1.0,2.0,82,0.00,,---,0.00,VWS V14.01,2013-01-18 06:09:00,
2013-01-18 00:14:00,23.5,18.5,30.47,SW,234,2.0,3.0,81,0.00,,---,0.00,VWS V14.01,2013-01-18 06:14:00,
2013-01-18 00:19:00,23.4,18.4,30.47,SW,234,2.0,3.0,81,0.00,,---,0.00,VWS V14.01,2013-01-18 06:19:00,
2013-01-18 00:24:00,23.3,18.6,30.47,SW,234,1.0,3.0,82,0.00,,---,0.00,VWS V14.01,2013-01-18 06:24:00,
2013-01-18 00:29:00,23.3,18.6,30.47,SW,234,0.0,0.0,82,0.00,,---,0.00,VWS V14.01,2013-01-18 06:29:00,
2013-01-18 00:30:00,23.3,18.6,30.47,SW,234,0.0,3.0,82,0.00,,---,0.00,VWS V14.01,2013-01-18 06:30:00,
2013-01-18 00:34:00,23.1,18.4,30.47,SW,234,0.0,0.0,82,0.00,,---,0.00,VWS V14.01,2013-01-18 06:34:00,
2013-01-18 00:39:00,23.2,18.5,30.47,SW,234,0.0,0.0,82,0.00,,---,0.00,VWS V14.01,2013-01-18 06:39:00,
2013-01-18 00:44:00,23.5,18.8,30.46,SSW,209,1.0,2.0,82,0.00,,---,0.00,VWS V14.01,2013-01-18 06:44:00,
2013-01-18 00:49:00,23.6,18.6,30.47,SSW,205,0.0,3.0,81,0.00,,---,0.00,VWS V14.01,2013-01-18 06:49:00,
2013-01-18 00:54:00,23.6,18.6,30.47,SSW,205,0.0,3.0,81,0.00,,---,0.00,VWS V14.01,2013-01-18 06:54:00,
2013-01-18 00:59:00,23.6,18.6,30.47,SSW,205,1.0,2.0,81,0.00,,---,0.00,VWS V14.01,2013-01-18 06:59:00,
2013-01-18 01:00:00,24.7,19.7,30.47,South,173,0.0,3.0,81,0.00,,---,0.00,VWS V14.01,2013-01-18 07:00:00,
2013-01-18 01:04:00,23.7,18.7,30.47,SSW,205,0.0,2.0,81,0.00,,---,0.00,VWS V14.01,2013-01-18 07:04:00,
2013-01-18 01:09:00,23.6,18.6,30.47,SSW,205,1.0,2.0,81,0.00,,---,0.00,VWS V14.01,2013-01-18 07:09:00,
2013-01-18 01:14:00,23.8,18.8,30.47,SSW,204,3.0,3.0,81,0.00,,---,0.00,VWS V14.01,2013-01-18 07:14:00,
2013-01-18 01:20:00,23.9,18.9,30.47,SSW,204,0.0,3.0,81,0.00,,---,0.00,VWS V14.01,2013-01-18 07:20:00,
2013-01-18 01:25:00,24.2,19.2,30.47,SSW,205,0.0,3.0,81,0.00,,---,0.00,VWS V14.01,2013-01-18 07:25:00,
2013-01-18 01:30:00,24.3,19.3,30.47,SSW,198,0.0,3.0,81,0.00,,---,0.00,VWS V14.01,2013-01-18 07:30:00,
2013-01-18 01:35:00,24.4,19.4,30.48,SSW,195,1.0,3.0,81,0.00,,---,0.00,VWS V14.01,2013-01-18 07:35:00,
2013-01-18 01:40:00,24.5,19.5,30.48,SSW,192,1.0,3.0,81,0.00,,---,0.00,VWS V14.01,2013-01-18 07:40:00,
2013-01-18 01:45:00,24.5,19.5,30.47,South,191,0.0,3.0,81,0.00,,---,0.00,VWS V14.01,2013-01-18 07:45:00,
2013-01-18 01:50:00,24.6,19.6,30.47,South,190,2.0,3.0,81,0.00,,---,0.00,VWS V14.01,2013-01-18 07:50:00,
2013-01-18 01:55:00,24.7,19.7,30.48,South,173,0.0,3.0,81,0.00,,---,0.00,VWS V14.01,2013-01-18 07:55:00,
2013-01-18 02:00:00,24.7,19.7,30.47,South,175,2.0,2.0,81,0.00,,---,0.00,VWS V14.01,2013-01-18 08:00:00,
2013-01-18 02:05:00,24.7,19.4,30.47,SSW,196,3.0,3.0,80,0.00,,---,0.00,VWS V14.01,2013-01-18 08:05:00,
2013-01-18 02:10:00,24.7,19.4,30.47,SSW,195,2.0,3.0,80,0.00,,---,0.00,VWS V14.01,2013-01-18 08:10:00,
2013-01-18 02:15:00,24.7,19.4,30.47,SSW,195,0.0,3.0,80,0.00,,---,0.00,VWS V14.01,2013-01-18 08:15:00,
2013-01-18 02:20:00,24.7,19.4,30.47,SSW,195,0.0,3.0,80,0.00,,---,0.00,VWS V14.01,2013-01-18 08:20:00,
2013-01-18 02:25:00,24.7,19.4,30.47,SSW,195,0.0,3.0,80,0.00,,---,0.00,VWS V14.01,2013-01-18 08:25:00,
2013-01-18 02:30:00,24.6,19.6,30.47,SSW,195,0.0,0.0,81,0.00,,---,0.00,VWS V14.01,2013-01-18 08:30:00,
2013-01-18 02:35:00,24.4,19.7,30.47,SSW,195,0.0,0.0,82,0.00,,---,0.00,VWS V14.01,2013-01-18 08:35:00,
2013-01-18 02:40:00,24.4,19.7,30.46,SSW,195,0.0,0.0,82,0.00,,---,0.00,VWS V14.01,2013-01-18 08:40:00,
2013-01-18 02:45:00,24.1,19.7,30.46,South,185,0.0,1.0,83,0.00,,---,0.00,VWS V14.01,2013-01-18 08:45:00,
2013-01-18 02:50:00,24.2,19.8,30.46,South,180,1.0,2.0,83,0.00,,---,0.00,VWS V14.01,2013-01-18 08:50:00,
2013-01-18 02:55:00,24.3,19.6,30.46,SSE,167,2.0,4.0,82,0.00,,---,0.00,VWS V14.01,2013-01-18 08:55:00,
2013-01-18 03:00:00,24.4,19.7,30.46,SSE,161,2.0,4.0,82,0.00,,---,0.00,VWS V14.01,2013-01-18 09:00:00,
2013-01-18 03:05:00,24.5,19.8,30.46,SSE,161,2.0,4.0,82,0.00,,---,0.00,VWS V14.01,2013-01-18 09:05:00,
2013-01-18 03:11:00,24.5,19.8,30.46,SSE,163,2.0,4.0,82,0.00,,---,0.00,VWS V14.01,2013-01-18 09:11:00,
2013-01-18 03:16:00,24.6,19.6,30.46,South,170,1.0,4.0,81,0.00,,---,0.00,VWS V14.01,2013-01-18 09:16:00,
2013-01-18 03:21:00,24.7,19.7,30.46,South,170,0.0,4.0,81,0.00,,---,0.00,VWS V14.01,2013-01-18 09:21:00,
2013-01-18 03:26:00,24.8,19.8,30.46,South,171,0.0,4.0,81,0.00,,---,0.00,VWS V14.01,2013-01-18 09:26:00,
2013-01-18 03:30:00,24.2,20.1,30.44,SSE,161,4.0,7.0,84,0.00,,---,0.00,VWS V14.01,2013-01-18 09:30:00,
2013-01-18 03:31:00,24.7,20.0,30.45,SSE,168,2.0,3.0,82,0.00,,---,0.00,VWS V14.01,2013-01-18 09:31:00,
2013-01-18 03:36:00,24.6,19.9,30.45,SSE,153,4.0,5.0,82,0.00,,---,0.00,VWS V14.01,2013-01-18 09:36:00,
2013-01-18 03:41:00,24.4,20.0,30.45,SSE,157,5.0,6.0,83,0.00,,---,0.00,VWS V14.01,2013-01-18 09:41:00,
2013-01-18 03:46:00,24.3,19.9,30.45,SSE,168,4.0,6.0,83,0.00,,---,0.00,VWS V14.01,2013-01-18 09:46:00,
2013-01-18 03:51:00,24.4,20.0,30.45,South,173,2.0,7.0,83,0.00,,---,0.00,VWS V14.01,2013-01-18 09:51:00,
2013-01-18 03:56:00,24.4,20.0,30.45,SSE,161,3.0,7.0,83,0.00,,---,0.00,VWS V14.01,2013-01-18 09:56:00,
2013-01-18 04:00:00,24.5,20.1,30.43,South,169,3.0,5.0,83,0.00,,---,0.00,VWS V14.01,2013-01-18 10:00:00,
2013-01-18 04:01:00,24.4,20.0,30.45,SSE,165,2.0,5.0,83,0.00,,---,0.00,VWS V14.01,2013-01-18 10:01:00,
2013-01-18 04:06:00,24.4,20.3,30.45,SSE,163,4.0,6.0,84,0.00,,---,0.00,VWS V14.01,2013-01-18 10:06:00,
2013-01-18 04:11:00,24.4,20.3,30.45,SSE,158,4.0,6.0,84,0.00,,---,0.00,VWS V14.01,2013-01-18 10:11:00,
2013-01-18 04:16:00,24.3,20.2,30.44,SSE,163,5.0,6.0,84,0.00,,---,0.00,VWS V14.01,2013-01-18 10:16:00,
2013-01-18 04:21:00,24.3,20.2,30.44,SSE,161,3.0,7.0,84,0.00,,---,0.00,VWS V14.01,2013-01-18 10:21:00,
2013-01-18 04:26:00,24.2,20.1,30.44,SSE,163,4.0,7.0,84,0.00,,---,0.00,VWS V14.01,2013-01-18 10:26:00,
2013-01-18 04:30:00,24.2,20.1,30.44,SSE,161,4.0,7.0,84,0.00,,---,0.00,VWS V14.01,2013-01-18 10:30:00,
2013-01-18 04:31:00,24.1,20.0,30.44,SSE,165,3.0,4.0,84,0.00,,---,0.00,VWS V14.01,2013-01-18 10:31:00,
2013-01-18 04:36:00,24.1,20.0,30.44,South,172,2.0,4.0,84,0.00,,---,0.00,VWS V14.01,2013-01-18 10:36:00,
2013-01-18 04:41:00,24.1,20.0,30.44,South,170,2.0,5.0,84,0.00,,---,0.00,VWS V14.01,2013-01-18 10:41:00,
2013-01-18 04:47:00,24.2,20.1,30.44,South,171,2.0,5.0,84,0.00,,---,0.00,VWS V14.01,2013-01-18 10:47:00,
2013-01-18 04:52:00,24.3,20.2,30.44,South,173,2.0,5.0,84,0.00,,---,0.00,VWS V14.01,2013-01-18 10:52:00,
2013-01-18 04:57:00,24.4,20.0,30.43,South,171,2.0,5.0,83,0.00,,---,0.00,VWS V14.01,2013-01-18 10:57:00,
2013-01-18 05:00:00,22.7,18.9,30.41,SSE,161,3.0,6.0,85,0.00,,---,0.00,VWS V14.01,2013-01-18 11:00:00,
2013-01-18 05:02:00,24.6,20.2,30.43,SSE,168,2.0,4.0,83,0.00,,---,0.00,VWS V14.01,2013-01-18 11:02:00,
2013-01-18 05:07:00,24.6,19.9,30.43,South,172,1.0,4.0,82,0.00,,---,0.00,VWS V14.01,2013-01-18 11:07:00,
2013-01-18 05:12:00,24.5,20.1,30.43,South,171,2.0,5.0,83,0.00,,---,0.00,VWS V14.01,2013-01-18 11:12:00,
2013-01-18 05:17:00,24.4,19.7,30.43,SSE,159,3.0,5.0,82,0.00,,---,0.00,VWS V14.01,2013-01-18 11:17:00,
2013-01-18 05:22:00,24.3,19.9,30.43,SSE,159,3.0,5.0,83,0.00,,---,0.00,VWS V14.01,2013-01-18 11:22:00,
2013-01-18 05:27:00,24.1,19.7,30.43,South,171,2.0,5.0,83,0.00,,---,0.00,VWS V14.01,2013-01-18 11:27:00,
2013-01-18 05:30:00,24.5,19.8,30.41,South,180,4.0,6.0,82,0.00,,---,0.00,VWS V14.01,2013-01-18 11:30:00,
2013-01-18 05:32:00,24.0,19.6,30.43,SSE,159,3.0,5.0,83,0.00,,---,0.00,VWS V14.01,2013-01-18 11:32:00,
2013-01-18 05:37:00,23.8,19.4,30.42,SSE,159,3.0,5.0,83,0.00,,---,0.00,VWS V14.01,2013-01-18 11:37:00,
2013-01-18 05:42:00,23.3,18.9,30.42,SSE,155,5.0,6.0,83,0.00,,---,0.00,VWS V14.01,2013-01-18 11:42:00,
2013-01-18 05:47:00,22.9,18.8,30.42,SSE,155,3.0,6.0,84,0.00,,---,0.00,VWS V14.01,2013-01-18 11:47:00,
2013-01-18 05:52:00,22.7,18.9,30.41,SSE,154,3.0,6.0,85,0.00,,---,0.00,VWS V14.01,2013-01-18 11:52:00,
2013-01-18 05:57:00,22.7,18.9,30.41,SSE,161,3.0,6.0,85,0.00,,---,0.00,VWS V14.01,2013-01-18 11:57:00,
2013-01-18 06:00:00,24.9,19.9,30.40,South,176,4.0,8.0,81,0.00,,---,0.00,VWS V14.01,2013-01-18 12:00:00,
2013-01-18 06:02:00,22.8,19.0,30.42,South,171,2.0,5.0,85,0.00,,---,0.00,VWS V14.01,2013-01-18 12:02:00,
2013-01-18 06:07:00,23.2,19.4,30.42,South,170,2.0,5.0,85,0.00,,---,0.00,VWS V14.01,2013-01-18 12:07:00,
2013-01-18 06:12:00,23.6,19.5,30.42,South,171,2.0,5.0,84,0.00,,---,0.00,VWS V14.01,2013-01-18 12:12:00,
2013-01-18 06:17:00,23.9,19.8,30.41,SSE,164,3.0,6.0,84,0.00,,---,0.00,VWS V14.01,2013-01-18 12:17:00,
2013-01-18 06:22:00,24.2,19.8,30.41,SSE,161,1.0,6.0,83,0.00,,---,0.00,VWS V14.01,2013-01-18 12:22:00,
2013-01-18 06:27:00,24.4,19.7,30.41,South,169,4.0,6.0,82,0.00,,---,0.00,VWS V14.01,2013-01-18 12:27:00,
2013-01-18 06:30:00,25.1,20.1,30.39,South,178,4.0,10.0,81,0.00,,---,0.00,VWS V14.01,2013-01-18 12:30:00,
2013-01-18 06:32:00,24.5,19.8,30.41,South,177,3.0,8.0,82,0.00,,---,0.00,VWS V14.01,2013-01-18 12:32:00,
2013-01-18 06:37:00,24.7,20.0,30.41,South,170,3.0,8.0,82,0.00,,---,0.00,VWS V14.01,2013-01-18 12:37:00,
2013-01-18 06:42:00,24.7,20.0,30.41,SSE,153,5.0,8.0,82,0.00,,---,0.00,VWS V14.01,2013-01-18 12:42:00,
2013-01-18 06:47:00,24.7,20.0,30.41,SSE,168,7.0,8.0,82,0.00,,---,0.00,VWS V14.01,2013-01-18 12:47:00,
2013-01-18 06:53:00,24.8,20.1,30.40,South,171,6.0,8.0,82,0.00,,---,0.00,VWS V14.01,2013-01-18 12:53:00,
2013-01-18 06:58:00,24.9,19.9,30.40,South,169,4.0,8.0,81,0.00,,---,0.00,VWS V14.01,2013-01-18 12:58:00,
2013-01-18 07:00:00,26.6,21.3,30.39,SSE,166,8.0,10.0,80,0.00,,---,0.00,VWS V14.01,2013-01-18 13:00:00,
2013-01-18 07:03:00,25.0,20.0,30.40,South,177,6.0,7.0,81,0.00,,---,0.00,VWS V14.01,2013-01-18 13:03:00,
2013-01-18 07:08:00,25.0,20.0,30.40,South,169,4.0,8.0,81,0.00,,---,0.00,VWS V14.01,2013-01-18 13:08:00,
2013-01-18 07:13:00,25.0,20.0,30.40,South,170,3.0,8.0,81,0.00,,---,0.00,VWS V14.01,2013-01-18 13:13:00,
2013-01-18 07:18:00,25.1,20.1,30.40,SSE,160,6.0,10.0,81,0.00,,---,0.00,VWS V14.01,2013-01-18 13:18:00,
2013-01-18 07:23:00,25.1,20.1,30.40,South,171,3.0,10.0,81,0.00,,---,0.00,VWS V14.01,2013-01-18 13:23:00,
2013-01-18 07:28:00,25.1,20.1,30.39,South,178,4.0,10.0,81,0.00,,---,0.00,VWS V14.01,2013-01-18 13:28:00,
2013-01-18 07:30:00,28.5,22.2,30.39,South,173,4.0,11.0,77,0.00,,---,0.00,VWS V14.01,2013-01-18 13:30:00,
2013-01-18 07:33:00,25.2,20.2,30.39,South,185,4.0,8.0,81,0.00,,---,0.00,VWS V14.01,2013-01-18 13:33:00,
2013-01-18 07:39:00,25.3,20.3,30.39,South,185,4.0,8.0,81,0.00,,---,0.00,VWS V14.01,2013-01-18 13:39:00,
2013-01-18 07:44:00,25.6,20.6,30.39,South,186,6.0,8.0,81,0.00,,---,0.00,VWS V14.01,2013-01-18 13:44:00,
2013-01-18 07:49:00,26.0,21.0,30.40,South,169,4.0,8.0,81,0.00,,---,0.00,VWS V14.01,2013-01-18 13:49:00,
2013-01-18 07:54:00,26.2,20.9,30.39,South,173,5.0,10.0,80,0.00,,---,0.00,VWS V14.01,2013-01-18 13:54:00,
2013-01-18 07:59:00,26.7,21.4,30.39,South,170,5.0,8.0,80,0.00,,---,0.00,VWS V14.01,2013-01-18 13:59:00,
2013-01-18 08:00:00,31.3,24.0,30.38,South,188,17.0,17.0,74,0.00,,---,0.00,VWS V14.01,2013-01-18 14:00:00,
2013-01-18 08:04:00,27.0,21.4,30.39,South,178,8.0,9.0,79,0.00,,---,0.00,VWS V14.01,2013-01-18 14:04:00,
2013-01-18 08:09:00,27.3,21.7,30.39,South,182,6.0,10.0,79,0.00,,---,0.00,VWS V14.01,2013-01-18 14:09:00,
2013-01-18 08:14:00,27.7,22.0,30.39,South,179,8.0,10.0,79,0.00,,---,0.00,VWS V14.01,2013-01-18 14:14:00,
2013-01-18 08:19:00,28.0,22.0,30.39,South,175,4.0,11.0,78,0.00,,---,0.00,VWS V14.01,2013-01-18 14:19:00,
2013-01-18 08:24:00,28.3,22.3,30.39,South,177,4.0,11.0,78,0.00,,---,0.00,VWS V14.01,2013-01-18 14:24:00,
2013-01-18 08:29:00,28.5,22.2,30.39,South,180,10.0,11.0,77,0.00,,---,0.00,VWS V14.01,2013-01-18 14:29:00,
2013-01-18 08:30:00,28.5,22.2,30.39,South,173,4.0,11.0,77,0.00,,---,0.00,VWS V14.01,2013-01-18 14:30:00,
2013-01-18 08:34:00,28.8,22.5,30.38,SSE,168,8.0,11.0,77,0.00,,---,0.00,VWS V14.01,2013-01-18 14:34:00,
2013-01-18 08:39:00,29.1,22.8,30.39,South,174,6.0,11.0,77,0.00,,---,0.00,VWS V14.01,2013-01-18 14:39:00,
2013-01-18 08:44:00,29.6,23.0,30.38,SSE,164,6.0,11.0,76,0.00,,---,0.00,VWS V14.01,2013-01-18 14:44:00,
2013-01-18 08:49:00,30.1,23.5,30.38,South,182,9.0,11.0,76,0.00,,---,0.00,VWS V14.01,2013-01-18 14:49:00,
2013-01-18 08:54:00,30.9,23.6,30.38,South,186,7.0,13.0,74,0.00,,---,0.00,VWS V14.01,2013-01-18 14:54:00,
2013-01-18 08:59:00,31.5,24.2,30.38,SSW,205,10.0,17.0,74,0.00,,---,0.00,VWS V14.01,2013-01-18 14:59:00,
2013-01-18 09:00:00,34.8,25.7,30.35,South,184,10.0,19.0,69,0.00,,---,0.00,VWS V14.01,2013-01-18 15:00:00,
2013-01-18 09:04:00,32.0,24.0,30.38,South,171,8.0,17.0,72,0.00,,---,0.00,VWS V14.01,2013-01-18 15:04:00,
2013-01-18 09:09:00,32.4,24.4,30.37,SSE,168,11.0,17.0,72,0.00,,---,0.00,VWS V14.01,2013-01-18 15:09:00,
2013-01-18 09:14:00,32.6,24.2,30.37,South,171,9.0,17.0,71,0.00,,---,0.00,VWS V14.01,2013-01-18 15:14:00,
2013-01-18 09:20:00,32.7,24.4,30.37,SSE,168,12.0,18.0,71,0.00,,---,0.00,VWS V14.01,2013-01-18 15:20:00,
2013-01-18 09:25:00,32.9,24.2,30.36,SSE,165,6.0,18.0,70,0.00,,---,0.00,VWS V14.01,2013-01-18 15:25:00,
2013-01-18 09:30:00,33.2,24.5,30.36,SSE,160,10.0,13.0,70,0.00,,---,0.00,VWS V14.01,2013-01-18 15:30:00,
2013-01-18 09:35:00,33.5,24.8,30.36,South,184,8.0,15.0,70,0.00,,---,0.00,VWS V14.01,2013-01-18 15:35:00,
2013-01-18 09:40:00,33.6,24.9,30.36,SSW,194,8.0,19.0,70,0.00,,---,0.00,VWS V14.01,2013-01-18 15:40:00,
2013-01-18 09:45:00,34.0,24.9,30.36,SSE,163,7.0,19.0,69,0.00,,---,0.00,VWS V14.01,2013-01-18 15:45:00,
2013-01-18 09:50:00,34.2,25.1,30.36,South,174,13.0,19.0,69,0.00,,---,0.00,VWS V14.01,2013-01-18 15:50:00,
2013-01-18 09:55:00,34.6,25.5,30.36,South,183,13.0,19.0,69,0.00,,---,0.00,VWS V14.01,2013-01-18 15:55:00,
2013-01-18 10:00:00,35.0,25.5,30.35,South,184,16.0,17.0,68,0.00,,---,0.00,VWS V14.01,2013-01-18 16:00:00,
2013-01-18 10:05:00,35.3,25.5,30.35,South,186,12.0,18.0,67,0.00,,---,0.00,VWS V14.01,2013-01-18 16:05:00,
2013-01-18 10:10:00,35.6,25.7,30.35,South,173,6.0,18.0,67,0.00,,---,0.00,VWS V14.01,2013-01-18 16:10:00,
2013-01-18 10:15:00,35.9,25.7,30.35,SSW,194,9.0,18.0,66,0.00,,---,0.00,VWS V14.01,2013-01-18 16:15:00,
2013-01-18 10:20:00,36.3,25.7,30.35,SSE,167,11.0,20.0,65,0.00,,---,0.00,VWS V14.01,2013-01-18 16:20:00,
2013-01-18 10:25:00,36.5,26.2,30.34,South,171,8.0,20.0,66,0.00,,---,0.00,VWS V14.01,2013-01-18 16:25:00,
2013-01-18 10:30:00,40.5,28.5,30.28,South,182,10.0,18.0,62,0.00,,---,0.00,VWS V14.01,2013-01-18 16:30:00,
2013-01-18 10:31:00,36.8,26.1,30.34,South,169,9.0,15.0,65,0.00,,---,0.00,VWS V14.01,2013-01-18 16:31:00,
2013-01-18 10:36:00,37.1,26.4,30.33,SSW,192,4.0,20.0,65,0.00,,---,0.00,VWS V14.01,2013-01-18 16:36:00,
2013-01-18 10:41:00,37.5,27.2,30.33,South,186,8.0,20.0,66,0.00,,---,0.00,VWS V14.01,2013-01-18 16:41:00,
2013-01-18 10:46:00,37.7,27.0,30.32,South,173,8.0,20.0,65,0.00,,---,0.00,VWS V14.01,2013-01-18 16:46:00,
2013-01-18 10:51:00,37.9,26.8,30.32,SSW,194,6.0,20.0,64,0.00,,---,0.00,VWS V14.01,2013-01-18 16:51:00,
2013-01-18 10:56:00,38.2,27.1,30.31,NE,50,7.0,20.0,64,0.00,,---,0.00,VWS V14.01,2013-01-18 16:56:00,
2013-01-18 11:00:00,41.2,28.8,30.25,South,171,4.0,21.0,61,0.00,,---,0.00,VWS V14.01,2013-01-18 17:00:00,
2013-01-18 11:01:00,38.4,27.3,30.31,South,185,11.0,18.0,64,0.00,,---,0.00,VWS V14.01,2013-01-18 17:01:00,
2013-01-18 11:06:00,38.6,27.5,30.30,South,180,5.0,18.0,64,0.00,,---,0.00,VWS V14.01,2013-01-18 17:06:00,
2013-01-18 11:11:00,39.3,27.4,30.30,South,190,13.0,18.0,62,0.00,,---,0.00,VWS V14.01,2013-01-18 17:11:00,
2013-01-18 11:16:00,39.7,27.8,30.29,South,189,10.0,18.0,62,0.00,,---,0.00,VWS V14.01,2013-01-18 17:16:00,
2013-01-18 11:21:00,40.0,28.4,30.29,South,175,10.0,18.0,63,0.00,,---,0.00,VWS V14.01,2013-01-18 17:21:00,
2013-01-18 11:26:00,40.3,28.7,30.29,SSE,166,12.0,18.0,63,0.00,,---,0.00,VWS V14.01,2013-01-18 17:26:00,
2013-01-18 11:30:00,42.2,30.1,30.22,South,186,12.0,20.0,62,0.00,,---,0.00,VWS V14.01,2013-01-18 17:30:00,
2013-01-18 11:31:00,40.5,28.5,30.28,South,182,7.0,12.0,62,0.00,,---,0.00,VWS V14.01,2013-01-18 17:31:00,
2013-01-18 11:36:00,40.8,28.8,30.28,South,182,10.0,14.0,62,0.00,,---,0.00,VWS V14.01,2013-01-18 17:36:00,
2013-01-18 11:41:00,41.0,28.6,30.26,South,170,12.0,16.0,61,0.00,,---,0.00,VWS V14.01,2013-01-18 17:41:00,
2013-01-18 11:47:00,41.0,29.0,30.26,South,174,9.0,18.0,62,0.00,,---,0.00,VWS V14.01,2013-01-18 17:47:00,
2013-01-18 11:52:00,41.2,28.8,30.25,South,190,8.0,20.0,61,0.00,,---,0.00,VWS V14.01,2013-01-18 17:52:00,
2013-01-18 11:57:00,41.2,28.8,30.25,SSW,192,18.0,21.0,61,0.00,,---,0.00,VWS V14.01,2013-01-18 17:57:00,
2013-01-18 12:00:00,41.2,28.8,30.25,South,171,4.0,21.0,61,0.00,,---,0.00,VWS V14.01,2013-01-18 18:00:00,
2013-01-18 12:02:00,41.1,29.1,30.25,South,191,10.0,18.0,62,0.00,,---,0.00,VWS V14.01,2013-01-18 18:02:00,
2013-01-18 12:07:00,41.5,29.5,30.24,South,191,7.0,18.0,62,0.00,,---,0.00,VWS V14.01,2013-01-18 18:07:00,
2013-01-18 12:12:00,41.6,29.2,30.24,South,186,18.0,18.0,61,0.00,,---,0.00,VWS V14.01,2013-01-18 18:12:00,
2013-01-18 12:17:00,41.6,29.2,30.23,SSW,192,8.0,20.0,61,0.00,,---,0.00,VWS V14.01,2013-01-18 18:17:00,
2013-01-18 12:22:00,41.9,29.9,30.23,South,184,5.0,20.0,62,0.00,,---,0.00,VWS V14.01,2013-01-18 18:22:00,
2013-01-18 12:27:00,42.2,29.7,30.22,South,181,11.0,20.0,61,0.00,,---,0.00,VWS V14.01,2013-01-18 18:27:00,
2013-01-18 12:30:00,43.9,31.3,30.16,South,186,11.0,25.0,61,0.00,,---,0.00,VWS V14.01,2013-01-18 18:30:00,
2013-01-18 12:32:00,42.2,29.7,30.22,SSW,192,12.0,20.0,61,0.00,,---,0.00,VWS V14.01,2013-01-18 18:32:00,
2013-01-18 12:37:00,42.5,30.0,30.21,South,184,10.0,20.0,61,0.00,,---,0.00,VWS V14.01,2013-01-18 18:37:00,
2013-01-18 12:42:00,42.5,30.0,30.20,South,186,11.0,21.0,61,0.00,,---,0.00,VWS V14.01,2013-01-18 18:42:00,
2013-01-18 12:47:00,42.6,30.1,30.20,SSW,197,13.0,25.0,61,0.00,,---,0.00,VWS V14.01,2013-01-18 18:47:00,
2013-01-18 12:52:00,42.9,30.8,30.19,South,175,13.0,25.0,62,0.00,,---,0.00,VWS V14.01,2013-01-18 18:52:00,
2013-01-18 12:57:00,43.1,30.6,30.18,South,183,9.0,25.0,61,0.00,,---,0.00,VWS V14.01,2013-01-18 18:57:00,
2013-01-18 13:00:00,45.2,32.6,30.13,South,173,12.0,24.0,61,0.00,,---,0.00,VWS V14.01,2013-01-18 19:00:00,
2013-01-18 13:02:00,43.0,30.5,30.18,SSW,200,9.0,22.0,61,0.00,,---,0.00,VWS V14.01,2013-01-18 19:02:00,
2013-01-18 13:07:00,43.1,30.6,30.18,SSW,196,13.0,23.0,61,0.00,,---,0.00,VWS V14.01,2013-01-18 19:07:00,
2013-01-18 13:12:00,43.4,31.3,30.17,SSW,194,7.0,25.0,62,0.00,,---,0.00,VWS V14.01,2013-01-18 19:12:00,
2013-01-18 13:17:00,43.7,31.5,30.16,South,179,10.0,25.0,62,0.00,,---,0.00,VWS V14.01,2013-01-18 19:17:00,
2013-01-18 13:23:00,43.9,31.3,30.16,South,184,10.0,25.0,61,0.00,,---,0.00,VWS V14.01,2013-01-18 19:23:00,
2013-01-18 13:28:00,43.8,31.6,30.16,SSE,161,17.0,25.0,62,0.00,,---,0.00,VWS V14.01,2013-01-18 19:28:00,
2013-01-18 13:30:00,45.8,32.7,30.10,South,169,11.0,23.0,60,0.00,,---,0.00,VWS V14.01,2013-01-18 19:30:00,
2013-01-18 13:33:00,43.9,31.7,30.15,South,178,8.0,20.0,62,0.00,,---,0.00,VWS V14.01,2013-01-18 19:33:00,
2013-01-18 13:38:00,44.2,31.6,30.15,SSE,167,14.0,20.0,61,0.00,,---,0.00,VWS V14.01,2013-01-18 19:38:00,
2013-01-18 13:43:00,44.2,31.6,30.14,South,181,12.0,21.0,61,0.00,,---,0.00,VWS V14.01,2013-01-18 19:43:00,
2013-01-18 13:48:00,44.5,31.9,30.14,South,169,9.0,21.0,61,0.00,,---,0.00,VWS V14.01,2013-01-18 19:48:00,
2013-01-18 13:53:00,44.9,32.7,30.14,South,184,10.0,24.0,62,0.00,,---,0.00,VWS V14.01,2013-01-18 19:53:00,
2013-01-18 13:58:00,45.2,32.6,30.13,South,189,18.0,24.0,61,0.00,,---,0.00,VWS V14.01,2013-01-18 19:58:00,
2013-01-18 14:00:00,46.5,33.0,30.09,SSE,158,18.0,23.0,59,0.00,,---,0.00,VWS V14.01,2013-01-18 20:00:00,
2013-01-18 14:03:00,45.4,32.8,30.12,South,178,14.0,23.0,61,0.00,,---,0.00,VWS V14.01,2013-01-18 20:03:00,
2013-01-18 14:08:00,45.4,32.8,30.12,South,173,12.0,23.0,61,0.00,,---,0.00,VWS V14.01,2013-01-18 20:08:00,
2013-01-18 14:13:00,45.7,32.6,30.11,South,185,8.0,23.0,60,0.00,,---,0.00,VWS V14.01,2013-01-18 20:13:00,
2013-01-18 14:18:00,45.9,33.2,30.11,South,173,10.0,23.0,61,0.00,,---,0.00,VWS V14.01,2013-01-18 20:18:00,
2013-01-18 14:23:00,46.0,32.9,30.11,South,184,6.0,23.0,60,0.00,,---,0.00,VWS V14.01,2013-01-18 20:23:00,
2013-01-18 14:28:00,45.8,32.7,30.10,South,169,11.0,23.0,60,0.00,,---,0.00,VWS V14.01,2013-01-18 20:28:00,
2013-01-18 14:30:00,47.1,32.7,30.07,SSW,192,18.0,23.0,57,0.00,,---,0.00,VWS V14.01,2013-01-18 20:30:00,
2013-01-18 14:33:00,45.6,32.5,30.11,South,180,10.0,16.0,60,0.00,,---,0.00,VWS V14.01,2013-01-18 20:33:00,
2013-01-18 14:39:00,45.6,32.9,30.10,SW,223,14.0,16.0,61,0.00,,---,0.00,VWS V14.01,2013-01-18 20:39:00,
2013-01-18 14:44:00,45.9,32.8,30.10,South,173,8.0,20.0,60,0.00,,---,0.00,VWS V14.01,2013-01-18 20:44:00,
2013-01-18 14:49:00,46.2,32.7,30.09,South,188,10.0,20.0,59,0.00,,---,0.00,VWS V14.01,2013-01-18 20:49:00,
2013-01-18 14:54:00,46.4,32.9,30.09,South,177,9.0,20.0,59,0.00,,---,0.00,VWS V14.01,2013-01-18 20:54:00,
2013-01-18 14:59:00,46.5,32.5,30.09,South,179,10.0,18.0,58,0.00,,---,0.00,VWS V14.01,2013-01-18 20:59:00,
2013-01-18 15:00:00,45.9,32.4,30.06,South,172,10.0,26.0,59,0.00,,---,0.00,VWS V14.01,2013-01-18 21:00:00,
2013-01-18 15:04:00,46.6,32.6,30.09,South,177,15.0,18.0,58,0.00,,---,0.00,VWS V14.01,2013-01-18 21:04:00,
2013-01-18 15:09:00,46.8,32.8,30.08,SSW,196,10.0,19.0,58,0.00,,---,0.00,VWS V14.01,2013-01-18 21:09:00,
2013-01-18 15:14:00,46.8,32.8,30.08,South,189,11.0,19.0,58,0.00,,---,0.00,VWS V14.01,2013-01-18 21:14:00,
2013-01-18 15:19:00,46.9,32.5,30.08,South,182,17.0,23.0,57,0.00,,---,0.00,VWS V14.01,2013-01-18 21:19:00,
2013-01-18 15:24:00,47.0,32.1,30.08,South,182,18.0,23.0,56,0.00,,---,0.00,VWS V14.01,2013-01-18 21:24:00,
2013-01-18 15:29:00,47.1,32.7,30.08,South,173,11.0,18.0,57,0.00,,---,0.00,VWS V14.01,2013-01-18 21:29:00,
2013-01-18 15:30:00,45.8,32.3,30.05,South,179,13.0,18.0,59,0.00,,---,0.00,VWS V14.01,2013-01-18 21:30:00,
2013-01-18 15:34:00,47.2,32.3,30.07,South,179,10.0,26.0,56,0.00,,---,0.00,VWS V14.01,2013-01-18 21:34:00,
2013-01-18 15:39:00,47.1,32.7,30.07,SSW,196,7.0,26.0,57,0.00,,---,0.00,VWS V14.01,2013-01-18 21:39:00,
2013-01-18 15:44:00,46.8,32.4,30.07,South,183,19.0,26.0,57,0.00,,---,0.00,VWS V14.01,2013-01-18 21:44:00,
2013-01-18 15:49:00,46.5,32.5,30.07,South,174,13.0,26.0,58,0.00,,---,0.00,VWS V14.01,2013-01-18 21:49:00,
2013-01-18 15:54:00,46.1,32.6,30.06,SSE,161,10.0,26.0,59,0.00,,---,0.00,VWS V14.01,2013-01-18 21:54:00,
2013-01-18 15:59:00,45.9,32.4,30.06,South,183,14.0,14.0,59,0.00,,---,0.00,VWS V14.01,2013-01-18 21:59:00,
2013-01-18 16:00:00,45.0,31.5,30.05,South,172,9.0,19.0,59,0.00,,---,0.00,VWS V14.01,2013-01-18 22:00:00,
2013-01-18 16:04:00,45.8,32.3,30.06,South,177,12.0,18.0,59,0.00,,---,0.00,VWS V14.01,2013-01-18 22:04:00,
2013-01-18 16:09:00,46.0,32.1,30.06,South,186,12.0,18.0,58,0.00,,---,0.00,VWS V14.01,2013-01-18 22:09:00,
2013-01-18 16:14:00,46.0,32.5,30.06,South,183,9.0,18.0,59,0.00,,---,0.00,VWS V14.01,2013-01-18 22:14:00,
2013-01-18 16:19:00,46.0,32.5,30.05,South,178,10.0,18.0,59,0.00,,---,0.00,VWS V14.01,2013-01-18 22:19:00,
2013-01-18 16:24:00,45.9,32.0,30.05,South,184,12.0,18.0,58,0.00,,---,0.00,VWS V14.01,2013-01-18 22:24:00,
2013-01-18 16:30:00,45.8,32.3,30.05,South,175,18.0,18.0,59,0.00,,---,0.00,VWS V14.01,2013-01-18 22:30:00,
2013-01-18 16:35:00,45.6,32.1,30.05,South,179,9.0,18.0,59,0.00,,---,0.00,VWS V14.01,2013-01-18 22:35:00,
2013-01-18 16:40:00,45.5,32.0,30.05,SSW,195,12.0,18.0,59,0.00,,---,0.00,VWS V14.01,2013-01-18 22:40:00,
2013-01-18 16:45:00,45.3,31.8,30.05,SSE,155,9.0,18.0,59,0.00,,---,0.00,VWS V14.01,2013-01-18 22:45:00,
2013-01-18 16:50:00,45.2,31.7,30.05,South,184,11.0,18.0,59,0.00,,---,0.00,VWS V14.01,2013-01-18 22:50:00,
2013-01-18 16:55:00,45.0,31.5,30.05,South,173,10.0,19.0,59,0.00,,---,0.00,VWS V14.01,2013-01-18 22:55:00,
2013-01-18 17:00:00,45.0,31.5,30.05,South,175,14.0,20.0,59,0.00,,---,0.00,VWS V14.01,2013-01-18 23:00:00,
2013-01-18 17:05:00,44.9,31.5,30.05,South,175,12.0,20.0,59,0.00,,---,0.00,VWS V14.01,2013-01-18 23:05:00,
2013-01-18 17:10:00,44.7,31.3,30.05,South,182,9.0,20.0,59,0.00,,---,0.00,VWS V14.01,2013-01-18 23:10:00,
2013-01-18 17:15:00,44.5,31.1,30.05,South,178,9.0,20.0,59,0.00,,---,0.00,VWS V14.01,2013-01-18 23:15:00,
2013-01-18 17:20:00,44.3,31.3,30.05,South,171,12.0,20.0,60,0.00,,---,0.00,VWS V14.01,2013-01-18 23:20:00,
2013-01-18 17:25:00,44.3,31.3,30.05,South,180,10.0,20.0,60,0.00,,---,0.00,VWS V14.01,2013-01-18 23:25:00,
2013-01-18 17:30:00,44.2,31.2,30.04,SSE,166,10.0,13.0,60,0.00,,---,0.00,VWS V14.01,2013-01-18 23:30:00,
2013-01-18 17:35:00,44.1,31.1,30.05,South,170,12.0,18.0,60,0.00,,---,0.00,VWS V14.01,2013-01-18 23:35:00,
2013-01-18 17:40:00,44.0,31.0,30.05,South,181,8.0,18.0,60,0.00,,---,0.00,VWS V14.01,2013-01-18 23:40:00,
2013-01-18 17:45:00,44.0,31.0,30.05,South,178,9.0,18.0,60,0.00,,---,0.00,VWS V14.01,2013-01-18 23:45:00,
2013-01-18 17:50:00,43.8,31.2,30.05,South,180,11.0,18.0,61,0.00,,---,0.00,VWS V14.01,2013-01-18 23:50:00,
2013-01-18 17:55:00,43.4,31.3,30.05,South,184,9.0,18.0,62,0.00,,---,0.00,VWS V14.01,2013-01-18 23:55:00,
2013-01-18 18:00:00,43.4,31.3,30.05,South,184,9.0,15.0,62,0.00,,---,0.00,VWS V14.01,2013-01-19 00:00:00,
2013-01-18 18:05:00,43.3,31.2,30.05,SSW,192,5.0,17.0,62,0.00,,---,0.00,VWS V14.01,2013-01-19 00:05:00,
2013-01-18 18:10:00,43.2,31.1,30.05,South,176,8.0,17.0,62,0.00,,---,0.00,VWS V14.01,2013-01-19 00:10:00,
2013-01-18 18:16:00,43.1,31.0,30.05,South,186,9.0,17.0,62,0.00,,---,0.00,VWS V14.01,2013-01-19 00:16:00,
2013-01-18 18:20:00,42.9,30.8,30.05,South,188,10.0,17.0,62,0.00,,---,0.00,VWS V14.01,2013-01-19 00:20:00,
2013-01-18 18:25:00,42.9,30.8,30.05,South,176,7.0,17.0,62,0.00,,---,0.00,VWS V14.01,2013-01-19 00:25:00,
2013-01-18 18:30:00,42.8,30.7,30.05,South,179,9.0,13.0,62,0.00,,---,0.00,VWS V14.01,2013-01-19 00:30:00,
2013-01-18 18:36:00,42.7,30.6,30.05,SSW,193,6.0,13.0,62,0.00,,---,0.00,VWS V14.01,2013-01-19 00:36:00,
2013-01-18 18:41:00,42.7,30.6,30.05,SSW,198,4.0,13.0,62,0.00,,---,0.00,VWS V14.01,2013-01-19 00:41:00,
2013-01-18 18:46:00,42.6,30.5,30.05,South,190,6.0,13.0,62,0.00,,---,0.00,VWS V14.01,2013-01-19 00:46:00,
2013-01-18 18:51:00,42.5,30.4,30.05,SSW,192,5.0,13.0,62,0.00,,---,0.00,VWS V14.01,2013-01-19 00:51:00,
2013-01-18 18:56:00,42.5,30.4,30.05,SSW,192,2.0,13.0,62,0.00,,---,0.00,VWS V14.01,2013-01-19 00:56:00,
2013-01-18 19:00:00,41.9,29.9,30.05,South,188,8.0,14.0,62,0.00,,---,0.00,VWS V14.01,2013-01-19 01:00:00,
2013-01-18 19:01:00,42.3,30.6,30.05,South,184,4.0,11.0,63,0.00,,---,0.00,VWS V14.01,2013-01-19 01:01:00,
2013-01-18 19:06:00,42.2,30.5,30.06,SSW,199,3.0,11.0,63,0.00,,---,0.00,VWS V14.01,2013-01-19 01:06:00,
2013-01-18 19:11:00,42.0,30.3,30.05,SSW,194,7.0,11.0,63,0.00,,---,0.00,VWS V14.01,2013-01-19 01:11:00,
2013-01-18 19:16:00,42.1,30.4,30.06,South,184,3.0,11.0,63,0.00,,---,0.00,VWS V14.01,2013-01-19 01:16:00,
2013-01-18 19:21:00,42.0,30.3,30.06,South,188,6.0,11.0,63,0.00,,---,0.00,VWS V14.01,2013-01-19 01:21:00,
2013-01-18 19:26:00,42.0,30.3,30.06,SSW,195,2.0,13.0,63,0.00,,---,0.00,VWS V14.01,2013-01-19 01:26:00,
2013-01-18 19:30:00,41.1,29.9,30.05,South,176,7.0,13.0,64,0.00,,---,0.00,VWS V14.01,2013-01-19 01:30:00,
2013-01-18 19:31:00,42.0,30.3,30.06,South,173,10.0,10.0,63,0.00,,---,0.00,VWS V14.01,2013-01-19 01:31:00,
2013-01-18 19:36:00,42.1,30.0,30.06,South,184,5.0,10.0,62,0.00,,---,0.00,VWS V14.01,2013-01-19 01:36:00,
2013-01-18 19:41:00,42.1,30.0,30.06,South,184,5.0,11.0,62,0.00,,---,0.00,VWS V14.01,2013-01-19 01:41:00,
2013-01-18 19:47:00,41.9,30.2,30.06,WSW,238,3.0,11.0,63,0.00,,---,0.00,VWS V14.01,2013-01-19 01:47:00,
2013-01-18 19:52:00,42.0,29.9,30.06,South,189,10.0,11.0,62,0.00,,---,0.00,VWS V14.01,2013-01-19 01:52:00,
2013-01-18 19:57:00,41.9,29.9,30.05,South,188,7.0,14.0,62,0.00,,---,0.00,VWS V14.01,2013-01-19 01:57:00,
2013-01-18 20:00:00,40.5,29.7,30.05,South,175,4.0,12.0,65,0.00,,---,0.00,VWS V14.01,2013-01-19 02:00:00,
2013-01-18 20:02:00,41.8,30.1,30.05,SSW,202,5.0,13.0,63,0.00,,---,0.00,VWS V14.01,2013-01-19 02:02:00,
2013-01-18 20:07:00,41.7,30.0,30.06,South,184,4.0,13.0,63,0.00,,---,0.00,VWS V14.01,2013-01-19 02:07:00,
2013-01-18 20:12:00,41.7,30.0,30.05,SSW,192,7.0,13.0,63,0.00,,---,0.00,VWS V14.01,2013-01-19 02:12:00,
2013-01-18 20:17:00,41.5,29.9,30.05,South,182,4.0,13.0,63,0.00,,---,0.00,VWS V14.01,2013-01-19 02:17:00,
2013-01-18 20:22:00,41.4,29.8,30.05,South,173,9.0,13.0,63,0.00,,---,0.00,VWS V14.01,2013-01-19 02:22:00,
2013-01-18 20:27:00,41.2,30.0,30.06,South,185,5.0,13.0,64,0.00,,---,0.00,VWS V14.01,2013-01-19 02:27:00,
2013-01-18 20:30:00,40.2,29.4,30.04,South,184,7.0,12.0,65,0.00,,---,0.00,VWS V14.01,2013-01-19 02:30:00,
2013-01-18 20:32:00,41.0,29.8,30.05,South,189,7.0,9.0,64,0.00,,---,0.00,VWS V14.01,2013-01-19 02:32:00,
2013-01-18 20:37:00,40.9,29.7,30.05,SSE,167,4.0,11.0,64,0.00,,---,0.00,VWS V14.01,2013-01-19 02:37:00,
2013-01-18 20:42:00,40.7,29.9,30.05,South,180,4.0,11.0,65,0.00,,---,0.00,VWS V14.01,2013-01-19 02:42:00,
2013-01-18 20:47:00,40.6,29.8,30.05,SSE,165,3.0,12.0,65,0.00,,---,0.00,VWS V14.01,2013-01-19 02:47:00,
2013-01-18 20:52:00,40.6,29.8,30.05,South,182,7.0,12.0,65,0.00,,---,0.00,VWS V14.01,2013-01-19 02:52:00,
2013-01-18 20:57:00,40.5,29.7,30.05,South,184,4.0,12.0,65,0.00,,---,0.00,VWS V14.01,2013-01-19 02:57:00,
2013-01-18 21:00:00,39.4,29.0,30.03,South,174,3.0,11.0,66,0.00,,---,0.00,VWS V14.01,2013-01-19 03:00:00,
2013-01-18 21:03:00,40.5,29.7,30.04,SSE,167,7.0,12.0,65,0.00,,---,0.00,VWS V14.01,2013-01-19 03:03:00,
2013-01-18 21:08:00,40.3,29.5,30.04,South,178,4.0,12.0,65,0.00,,---,0.00,VWS V14.01,2013-01-19 03:08:00,
2013-01-18 21:13:00,40.3,29.5,30.04,South,186,5.0,12.0,65,0.00,,---,0.00,VWS V14.01,2013-01-19 03:13:00,
2013-01-18 21:18:00,40.3,29.5,30.04,South,171,2.0,12.0,65,0.00,,---,0.00,VWS V14.01,2013-01-19 03:18:00,
2013-01-18 21:23:00,40.2,29.4,30.04,South,179,8.0,12.0,65,0.00,,---,0.00,VWS V14.01,2013-01-19 03:23:00,
2013-01-18 21:28:00,40.2,29.4,30.04,South,177,4.0,12.0,65,0.00,,---,0.00,VWS V14.01,2013-01-19 03:28:00,
2013-01-18 21:30:00,39.1,29.1,30.03,South,180,5.0,9.0,67,0.00,,---,0.00,VWS V14.01,2013-01-19 03:30:00,
2013-01-18 21:33:00,40.2,29.4,30.04,South,172,5.0,9.0,65,0.00,,---,0.00,VWS V14.01,2013-01-19 03:33:00,
2013-01-18 21:38:00,40.1,29.3,30.04,South,180,7.0,9.0,65,0.00,,---,0.00,VWS V14.01,2013-01-19 03:38:00,
2013-01-18 21:43:00,40.0,29.2,30.04,South,178,5.0,9.0,65,0.00,,---,0.00,VWS V14.01,2013-01-19 03:43:00,
2013-01-18 21:48:00,39.8,29.0,30.04,South,190,11.0,11.0,65,0.00,,---,0.00,VWS V14.01,2013-01-19 03:48:00,
2013-01-18 21:54:00,39.7,29.3,30.04,South,187,5.0,11.0,66,0.00,,---,0.00,VWS V14.01,2013-01-19 03:54:00,
2013-01-18 21:59:00,39.5,29.1,30.04,South,186,7.0,7.0,66,0.00,,---,0.00,VWS V14.01,2013-01-19 03:59:00,
2013-01-18 22:00:00,40.0,29.2,30.03,South,188,8.0,13.0,65,0.00,,---,0.00,VWS V14.01,2013-01-19 04:00:00,
2013-01-18 22:04:00,39.3,29.3,30.03,South,180,3.0,9.0,67,0.00,,---,0.00,VWS V14.01,2013-01-19 04:04:00,
2013-01-18 22:09:00,39.2,29.2,30.03,South,184,7.0,9.0,67,0.00,,---,0.00,VWS V14.01,2013-01-19 04:09:00,
2013-01-18 22:14:00,39.0,29.0,30.03,South,190,5.0,9.0,67,0.00,,---,0.00,VWS V14.01,2013-01-19 04:14:00,
2013-01-18 22:19:00,39.0,29.0,30.03,South,184,5.0,9.0,67,0.00,,---,0.00,VWS V14.01,2013-01-19 04:19:00,
2013-01-18 22:24:00,39.1,29.1,30.03,South,191,6.0,9.0,67,0.00,,---,0.00,VWS V14.01,2013-01-19 04:24:00,
2013-01-18 22:29:00,39.0,29.0,30.03,South,181,4.0,7.0,67,0.00,,---,0.00,VWS V14.01,2013-01-19 04:29:00,
2013-01-18 22:30:00,41.3,29.7,30.02,South,190,5.0,13.0,63,0.00,,---,0.00,VWS V14.01,2013-01-19 04:30:00,
2013-01-18 22:34:00,39.0,29.0,30.03,South,188,5.0,7.0,67,0.00,,---,0.00,VWS V14.01,2013-01-19 04:34:00,
2013-01-18 22:39:00,38.9,28.9,30.03,South,183,4.0,8.0,67,0.00,,---,0.00,VWS V14.01,2013-01-19 04:39:00,
2013-01-18 22:44:00,39.1,29.1,30.03,South,169,8.0,13.0,67,0.00,,---,0.00,VWS V14.01,2013-01-19 04:44:00,
2013-01-18 22:49:00,39.3,28.9,30.03,SSW,194,4.0,13.0,66,0.00,,---,0.00,VWS V14.01,2013-01-19 04:49:00,
2013-01-18 22:54:00,39.7,29.3,30.03,South,190,4.0,13.0,66,0.00,,---,0.00,VWS V14.01,2013-01-19 04:54:00,
2013-01-18 22:59:00,40.0,29.2,30.03,SSW,194,5.0,9.0,65,0.00,,---,0.00,VWS V14.01,2013-01-19 04:59:00,
2013-01-18 23:00:00,41.8,29.8,30.02,SSW,192,8.0,12.0,62,0.00,,---,0.00,VWS V14.01,2013-01-19 05:00:00,
2013-01-18 23:01:00,40.1,29.3,30.03,South,184,6.0,9.0,65,0.00,,---,0.00,VWS V14.01,2013-01-19 05:01:00,
2013-01-18 23:02:00,40.1,29.3,30.02,South,186,9.0,9.0,65,0.00,,---,0.00,VWS V14.01,2013-01-19 05:02:00,
2013-01-18 23:03:00,40.2,29.4,30.03,South,184,6.0,9.0,65,0.00,,---,0.00,VWS V14.01,2013-01-19 05:03:00,
2013-01-18 23:08:00,40.4,29.6,30.02,South,187,7.0,12.0,65,0.00,,---,0.00,VWS V14.01,2013-01-19 05:08:00,
2013-01-18 23:13:00,40.7,29.5,30.02,South,171,5.0,12.0,64,0.00,,---,0.00,VWS V14.01,2013-01-19 05:13:00,
2013-01-18 23:18:00,41.0,29.8,30.02,SSW,194,7.0,12.0,64,0.00,,---,0.00,VWS V14.01,2013-01-19 05:18:00,
2013-01-18 23:23:00,41.2,29.6,30.02,SSW,193,6.0,12.0,63,0.00,,---,0.00,VWS V14.01,2013-01-19 05:23:00,
2013-01-18 23:28:00,41.3,29.7,30.02,South,190,7.0,13.0,63,0.00,,---,0.00,VWS V14.01,2013-01-19 05:28:00,
2013-01-18 23:30:00,42.2,30.1,30.01,SSW,192,4.0,13.0,62,0.00,,---,0.00,VWS V14.01,2013-01-19 05:30:00,
2013-01-18 23:33:00,41.4,29.8,30.02,SSW,197,5.0,10.0,63,0.00,,---,0.00,VWS V14.01,2013-01-19 05:33:00,
2013-01-18 23:38:00,41.5,29.9,30.02,SSW,207,5.0,11.0,63,0.00,,---,0.00,VWS V14.01,2013-01-19 05:38:00,
2013-01-18 23:43:00,41.6,29.6,30.02,SSW,194,7.0,11.0,62,0.00,,---,0.00,VWS V14.01,2013-01-19 05:43:00,
2013-01-18 23:48:00,41.7,29.7,30.02,South,189,8.0,11.0,62,0.00,,---,0.00,VWS V14.01,2013-01-19 05:48:00,
2013-01-18 23:53:00,41.8,29.8,30.02,SSW,198,4.0,12.0,62,0.00,,---,0.00,VWS V14.01,2013-01-19 05:53:00,
2013-01-18 23:58:00,41.8,29.8,30.02,South,182,9.0,12.0,62,0.00,,---,0.00,VWS V14.01,2013-01-19 05:58:00,